sensor_id;sensor_type;location;lat;lon;timestamp;P1;durP1;ratioP1;P2;durP2;ratioP2
68923;SDS011;55961;52.156;20.942;2023-07-31T00:00:36;4.80;;;1.88;;
68923;SDS011;55961;52.156;20.942;2023-07-31T00:03:22;4.60;;;2.33;;
68923;SDS011;55961;52.156;20.942;2023-07-31T00:05:48;5.30;;;2.50;;
68923;SDS011;55961;52.156;20.942;2023-07-31T00:08:14;4.93;;;2.33;;
68923;SDS011;55961;52.156;20.942;2023-07-31T00:10:40;5.15;;;2.05;;
68923;SDS011;55961;52.156;20.942;2023-07-31T00:13:06;3.97;;;2.05;;
68923;SDS011;55961;52.156;20.942;2023-07-31T00:15:32;7.87;;;2.57;;
68923;SDS011;55961;52.156;20.942;2023-07-31T00:17:58;5.93;;;2.15;;
68923;SDS011;55961;52.156;20.942;2023-07-31T00:20:24;8.98;;;2.17;;
68923;SDS011;55961;52.156;20.942;2023-07-31T00:22:50;4.13;;;1.93;;
68923;SDS011;55961;52.156;20.942;2023-07-31T00:25:16;4.15;;;1.80;;
68923;SDS011;55961;52.156;20.942;2023-07-31T00:27:42;3.80;;;1.77;;
68923;SDS011;55961;52.156;20.942;2023-07-31T00:30:10;5.90;;;1.80;;
68923;SDS011;55961;52.156;20.942;2023-07-31T00:32:36;4.53;;;1.53;;
68923;SDS011;55961;52.156;20.942;2023-07-31T00:35:02;3.75;;;1.95;;
68923;SDS011;55961;52.156;20.942;2023-07-31T00:37:28;4.15;;;1.80;;
68923;SDS011;55961;52.156;20.942;2023-07-31T00:39:54;4.77;;;1.77;;
68923;SDS011;55961;52.156;20.942;2023-07-31T00:42:24;5.22;;;2.00;;
68923;SDS011;55961;52.156;20.942;2023-07-31T00:44:50;4.78;;;2.10;;
68923;SDS011;55961;52.156;20.942;2023-07-31T00:47:16;4.55;;;2.03;;
68923;SDS011;55961;52.156;20.942;2023-07-31T00:49:41;4.23;;;1.80;;
68923;SDS011;55961;52.156;20.942;2023-07-31T00:52:08;5.15;;;1.73;;
68923;SDS011;55961;52.156;20.942;2023-07-31T00:54:35;5.72;;;1.98;;
68923;SDS011;55961;52.156;20.942;2023-07-31T00:57:01;4.32;;;1.60;;
68923;SDS011;55961;52.156;20.942;2023-07-31T00:59:28;4.93;;;1.80;;
68923;SDS011;55961;52.156;20.942;2023-07-31T01:01:54;5.00;;;1.83;;
68923;SDS011;55961;52.156;20.942;2023-07-31T01:04:20;4.60;;;2.22;;
68923;SDS011;55961;52.156;20.942;2023-07-31T01:07:00;4.15;;;1.98;;
68923;SDS011;55961;52.156;20.942;2023-07-31T01:12:16;5.72;;;1.95;;
68923;SDS011;55961;52.156;20.942;2023-07-31T01:15:25;4.03;;;1.90;;
68923;SDS011;55961;52.156;20.942;2023-07-31T01:17:39;4.22;;;2.00;;
68923;SDS011;55961;52.156;20.942;2023-07-31T01:20:10;4.75;;;2.10;;
68923;SDS011;55961;52.156;20.942;2023-07-31T01:26:05;4.05;;;2.00;;
68923;SDS011;55961;52.156;20.942;2023-07-31T01:31:23;4.75;;;1.90;;
68923;SDS011;55961;52.156;20.942;2023-07-31T01:33:52;3.92;;;2.08;;
68923;SDS011;55961;52.156;20.942;2023-07-31T01:36:20;4.47;;;2.17;;
68923;SDS011;55961;52.156;20.942;2023-07-31T01:38:46;4.47;;;2.50;;
68923;SDS011;55961;52.156;20.942;2023-07-31T01:41:12;5.80;;;1.90;;
68923;SDS011;55961;52.156;20.942;2023-07-31T01:43:39;5.72;;;2.25;;
68923;SDS011;55961;52.156;20.942;2023-07-31T01:46:04;5.25;;;2.10;;
68923;SDS011;55961;52.156;20.942;2023-07-31T01:48:31;5.25;;;2.15;;
68923;SDS011;55961;52.156;20.942;2023-07-31T01:51:00;4.87;;;2.23;;
68923;SDS011;55961;52.156;20.942;2023-07-31T01:53:27;5.07;;;2.20;;
68923;SDS011;55961;52.156;20.942;2023-07-31T01:55:53;5.00;;;2.20;;
68923;SDS011;55961;52.156;20.942;2023-07-31T01:58:19;4.55;;;2.60;;
68923;SDS011;55961;52.156;20.942;2023-07-31T02:00:45;5.70;;;2.40;;
68923;SDS011;55961;52.156;20.942;2023-07-31T02:03:11;5.03;;;2.20;;
68923;SDS011;55961;52.156;20.942;2023-07-31T02:05:43;5.25;;;2.50;;
68923;SDS011;55961;52.156;20.942;2023-07-31T02:08:10;5.57;;;2.53;;
68923;SDS011;55961;52.156;20.942;2023-07-31T02:10:36;5.93;;;2.30;;
68923;SDS011;55961;52.156;20.942;2023-07-31T02:13:02;5.38;;;2.30;;
68923;SDS011;55961;52.156;20.942;2023-07-31T02:15:32;5.68;;;2.40;;
68923;SDS011;55961;52.156;20.942;2023-07-31T02:17:58;5.28;;;2.80;;
68923;SDS011;55961;52.156;20.942;2023-07-31T02:20:24;4.40;;;2.47;;
68923;SDS011;55961;52.156;20.942;2023-07-31T02:22:50;4.38;;;2.40;;
68923;SDS011;55961;52.156;20.942;2023-07-31T02:25:18;4.63;;;2.45;;
68923;SDS011;55961;52.156;20.942;2023-07-31T02:27:44;5.25;;;3.13;;
68923;SDS011;55961;52.156;20.942;2023-07-31T02:30:10;5.37;;;2.50;;
68923;SDS011;55961;52.156;20.942;2023-07-31T02:32:36;4.97;;;2.75;;
68923;SDS011;55961;52.156;20.942;2023-07-31T02:35:02;5.78;;;2.60;;
68923;SDS011;55961;52.156;20.942;2023-07-31T02:37:29;5.20;;;2.60;;
68923;SDS011;55961;52.156;20.942;2023-07-31T02:39:54;5.45;;;2.50;;
68923;SDS011;55961;52.156;20.942;2023-07-31T02:42:20;5.28;;;2.63;;
68923;SDS011;55961;52.156;20.942;2023-07-31T02:44:46;5.17;;;2.60;;
68923;SDS011;55961;52.156;20.942;2023-07-31T02:47:12;4.93;;;2.30;;
68923;SDS011;55961;52.156;20.942;2023-07-31T02:49:38;5.50;;;2.83;;
68923;SDS011;55961;52.156;20.942;2023-07-31T02:52:04;5.85;;;2.90;;
68923;SDS011;55961;52.156;20.942;2023-07-31T02:54:30;5.70;;;2.97;;
68923;SDS011;55961;52.156;20.942;2023-07-31T02:56:56;5.90;;;2.83;;
68923;SDS011;55961;52.156;20.942;2023-07-31T02:59:22;6.18;;;2.78;;
68923;SDS011;55961;52.156;20.942;2023-07-31T03:01:48;7.13;;;3.00;;
68923;SDS011;55961;52.156;20.942;2023-07-31T03:04:14;5.80;;;2.80;;
68923;SDS011;55961;52.156;20.942;2023-07-31T03:06:40;5.85;;;3.13;;
68923;SDS011;55961;52.156;20.942;2023-07-31T03:09:06;4.87;;;2.40;;
68923;SDS011;55961;52.156;20.942;2023-07-31T03:11:32;4.75;;;2.72;;
68923;SDS011;55961;52.156;20.942;2023-07-31T03:13:57;5.43;;;2.58;;
68923;SDS011;55961;52.156;20.942;2023-07-31T03:16:23;4.85;;;2.90;;
68923;SDS011;55961;52.156;20.942;2023-07-31T03:18:49;5.63;;;2.80;;
68923;SDS011;55961;52.156;20.942;2023-07-31T03:21:15;7.30;;;3.35;;
68923;SDS011;55961;52.156;20.942;2023-07-31T03:23:41;5.53;;;2.77;;
68923;SDS011;55961;52.156;20.942;2023-07-31T03:26:08;7.27;;;3.00;;
68923;SDS011;55961;52.156;20.942;2023-07-31T03:28:34;6.13;;;2.60;;
68923;SDS011;55961;52.156;20.942;2023-07-31T03:31:00;6.15;;;2.80;;
68923;SDS011;55961;52.156;20.942;2023-07-31T03:33:26;4.75;;;2.60;;
68923;SDS011;55961;52.156;20.942;2023-07-31T03:35:53;5.80;;;3.00;;
68923;SDS011;55961;52.156;20.942;2023-07-31T03:38:19;5.63;;;2.70;;
68923;SDS011;55961;52.156;20.942;2023-07-31T03:40:45;5.63;;;3.20;;
68923;SDS011;55961;52.156;20.942;2023-07-31T03:43:11;6.80;;;2.80;;
68923;SDS011;55961;52.156;20.942;2023-07-31T03:45:37;5.17;;;2.77;;
68923;SDS011;55961;52.156;20.942;2023-07-31T03:48:04;6.10;;;2.80;;
68923;SDS011;55961;52.156;20.942;2023-07-31T03:50:31;5.30;;;2.40;;
68923;SDS011;55961;52.156;20.942;2023-07-31T03:52:56;5.20;;;2.63;;
68923;SDS011;55961;52.156;20.942;2023-07-31T03:55:22;7.50;;;2.60;;
68923;SDS011;55961;52.156;20.942;2023-07-31T03:57:48;4.70;;;3.17;;
68923;SDS011;55961;52.156;20.942;2023-07-31T04:00:14;6.75;;;2.80;;
68923;SDS011;55961;52.156;20.942;2023-07-31T04:02:40;6.70;;;2.50;;
68923;SDS011;55961;52.156;20.942;2023-07-31T04:05:07;5.55;;;2.40;;
68923;SDS011;55961;52.156;20.942;2023-07-31T04:07:33;5.13;;;2.92;;
68923;SDS011;55961;52.156;20.942;2023-07-31T04:09:59;6.13;;;2.50;;
68923;SDS011;55961;52.156;20.942;2023-07-31T04:12:25;5.70;;;2.50;;
68923;SDS011;55961;52.156;20.942;2023-07-31T04:14:51;5.37;;;2.50;;
68923;SDS011;55961;52.156;20.942;2023-07-31T04:17:17;5.28;;;2.63;;
68923;SDS011;55961;52.156;20.942;2023-07-31T04:19:43;5.68;;;2.40;;
68923;SDS011;55961;52.156;20.942;2023-07-31T04:22:09;4.57;;;2.53;;
68923;SDS011;55961;52.156;20.942;2023-07-31T04:24:35;6.65;;;2.65;;
68923;SDS011;55961;52.156;20.942;2023-07-31T04:27:01;4.80;;;2.50;;
68923;SDS011;55961;52.156;20.942;2023-07-31T04:29:27;5.97;;;3.08;;
68923;SDS011;55961;52.156;20.942;2023-07-31T04:31:53;6.80;;;2.87;;
68923;SDS011;55961;52.156;20.942;2023-07-31T04:34:19;6.93;;;2.92;;
68923;SDS011;55961;52.156;20.942;2023-07-31T04:36:45;5.67;;;2.90;;
68923;SDS011;55961;52.156;20.942;2023-07-31T04:39:11;6.43;;;2.83;;
68923;SDS011;55961;52.156;20.942;2023-07-31T04:41:37;7.43;;;2.67;;
68923;SDS011;55961;52.156;20.942;2023-07-31T04:44:03;7.30;;;2.85;;
68923;SDS011;55961;52.156;20.942;2023-07-31T04:46:29;5.10;;;2.37;;
68923;SDS011;55961;52.156;20.942;2023-07-31T04:48:55;6.90;;;2.67;;
68923;SDS011;55961;52.156;20.942;2023-07-31T04:51:22;5.13;;;2.70;;
68923;SDS011;55961;52.156;20.942;2023-07-31T04:53:49;4.75;;;2.60;;
68923;SDS011;55961;52.156;20.942;2023-07-31T04:56:15;6.90;;;2.97;;
68923;SDS011;55961;52.156;20.942;2023-07-31T04:58:41;8.47;;;2.50;;
68923;SDS011;55961;52.156;20.942;2023-07-31T05:01:07;5.47;;;2.60;;
68923;SDS011;55961;52.156;20.942;2023-07-31T05:03:33;6.68;;;2.50;;
68923;SDS011;55961;52.156;20.942;2023-07-31T05:05:59;6.27;;;2.70;;
68923;SDS011;55961;52.156;20.942;2023-07-31T05:08:25;9.53;;;2.40;;
68923;SDS011;55961;52.156;20.942;2023-07-31T05:10:51;7.15;;;2.92;;
68923;SDS011;55961;52.156;20.942;2023-07-31T05:13:17;7.05;;;2.70;;
68923;SDS011;55961;52.156;20.942;2023-07-31T05:15:43;7.00;;;2.50;;
68923;SDS011;55961;52.156;20.942;2023-07-31T05:18:09;6.22;;;2.25;;
68923;SDS011;55961;52.156;20.942;2023-07-31T05:20:35;6.05;;;3.00;;
68923;SDS011;55961;52.156;20.942;2023-07-31T05:23:01;5.15;;;2.33;;
68923;SDS011;55961;52.156;20.942;2023-07-31T05:25:27;5.27;;;2.40;;
68923;SDS011;55961;52.156;20.942;2023-07-31T05:27:53;11.80;;;3.17;;
68923;SDS011;55961;52.156;20.942;2023-07-31T05:30:19;6.53;;;2.60;;
68923;SDS011;55961;52.156;20.942;2023-07-31T05:32:45;4.97;;;2.50;;
68923;SDS011;55961;52.156;20.942;2023-07-31T05:35:10;7.25;;;2.33;;
68923;SDS011;55961;52.156;20.942;2023-07-31T05:37:37;6.68;;;3.40;;
68923;SDS011;55961;52.156;20.942;2023-07-31T05:40:02;6.13;;;2.80;;
68923;SDS011;55961;52.156;20.942;2023-07-31T05:42:29;4.95;;;2.20;;
68923;SDS011;55961;52.156;20.942;2023-07-31T05:44:55;7.28;;;2.70;;
68923;SDS011;55961;52.156;20.942;2023-07-31T05:47:21;7.38;;;2.33;;
68923;SDS011;55961;52.156;20.942;2023-07-31T05:49:47;7.73;;;2.47;;
68923;SDS011;55961;52.156;20.942;2023-07-31T05:52:14;8.30;;;2.50;;
68923;SDS011;55961;52.156;20.942;2023-07-31T05:54:41;7.40;;;2.40;;
68923;SDS011;55961;52.156;20.942;2023-07-31T05:57:07;4.60;;;1.87;;
68923;SDS011;55961;52.156;20.942;2023-07-31T05:59:33;7.38;;;2.55;;
68923;SDS011;55961;52.156;20.942;2023-07-31T06:01:59;7.80;;;2.60;;
68923;SDS011;55961;52.156;20.942;2023-07-31T06:04:25;5.50;;;2.72;;
68923;SDS011;55961;52.156;20.942;2023-07-31T06:06:51;4.83;;;2.53;;
68923;SDS011;55961;52.156;20.942;2023-07-31T06:09:17;6.68;;;2.53;;
68923;SDS011;55961;52.156;20.942;2023-07-31T06:11:43;5.68;;;2.70;;
68923;SDS011;55961;52.156;20.942;2023-07-31T06:14:09;6.20;;;2.50;;
68923;SDS011;55961;52.156;20.942;2023-07-31T06:16:35;6.20;;;2.60;;
68923;SDS011;55961;52.156;20.942;2023-07-31T06:19:01;6.63;;;2.60;;
68923;SDS011;55961;52.156;20.942;2023-07-31T06:21:27;4.50;;;2.35;;
68923;SDS011;55961;52.156;20.942;2023-07-31T06:23:53;5.63;;;2.50;;
68923;SDS011;55961;52.156;20.942;2023-07-31T06:26:19;5.78;;;2.50;;
68923;SDS011;55961;52.156;20.942;2023-07-31T06:28:45;5.47;;;2.78;;
68923;SDS011;55961;52.156;20.942;2023-07-31T06:31:11;4.95;;;2.60;;
68923;SDS011;55961;52.156;20.942;2023-07-31T06:33:37;7.50;;;2.40;;
68923;SDS011;55961;52.156;20.942;2023-07-31T06:36:03;6.90;;;2.90;;
68923;SDS011;55961;52.156;20.942;2023-07-31T06:38:29;6.85;;;2.88;;
68923;SDS011;55961;52.156;20.942;2023-07-31T06:40:55;4.65;;;2.17;;
68923;SDS011;55961;52.156;20.942;2023-07-31T06:43:21;5.40;;;2.40;;
68923;SDS011;55961;52.156;20.942;2023-07-31T06:45:47;5.65;;;2.25;;
68923;SDS011;55961;52.156;20.942;2023-07-31T06:48:16;4.90;;;2.53;;
68923;SDS011;55961;52.156;20.942;2023-07-31T06:50:42;5.88;;;2.10;;
68923;SDS011;55961;52.156;20.942;2023-07-31T06:53:08;5.57;;;2.20;;
68923;SDS011;55961;52.156;20.942;2023-07-31T06:55:34;6.65;;;2.67;;
68923;SDS011;55961;52.156;20.942;2023-07-31T06:58:00;4.40;;;2.13;;
68923;SDS011;55961;52.156;20.942;2023-07-31T07:00:26;4.43;;;2.17;;
68923;SDS011;55961;52.156;20.942;2023-07-31T07:02:52;6.60;;;2.20;;
68923;SDS011;55961;52.156;20.942;2023-07-31T07:05:18;4.85;;;2.30;;
68923;SDS011;55961;52.156;20.942;2023-07-31T07:07:44;6.75;;;2.97;;
68923;SDS011;55961;52.156;20.942;2023-07-31T07:10:11;5.60;;;2.30;;
68923;SDS011;55961;52.156;20.942;2023-07-31T07:12:36;6.97;;;2.33;;
68923;SDS011;55961;52.156;20.942;2023-07-31T07:15:02;6.10;;;2.38;;
68923;SDS011;55961;52.156;20.942;2023-07-31T07:17:29;5.05;;;2.30;;
68923;SDS011;55961;52.156;20.942;2023-07-31T07:19:59;7.65;;;2.42;;
68923;SDS011;55961;52.156;20.942;2023-07-31T07:22:25;5.55;;;2.30;;
68923;SDS011;55961;52.156;20.942;2023-07-31T07:24:52;6.63;;;2.60;;
68923;SDS011;55961;52.156;20.942;2023-07-31T07:27:18;7.28;;;2.40;;
68923;SDS011;55961;52.156;20.942;2023-07-31T07:29:45;7.38;;;2.83;;
68923;SDS011;55961;52.156;20.942;2023-07-31T07:32:11;7.57;;;3.00;;
68923;SDS011;55961;52.156;20.942;2023-07-31T07:34:37;7.57;;;2.72;;
68923;SDS011;55961;52.156;20.942;2023-07-31T07:37:03;6.10;;;2.60;;
68923;SDS011;55961;52.156;20.942;2023-07-31T07:39:30;7.10;;;2.67;;
68923;SDS011;55961;52.156;20.942;2023-07-31T07:41:55;6.93;;;2.50;;
68923;SDS011;55961;52.156;20.942;2023-07-31T07:44:21;5.80;;;2.67;;
68923;SDS011;55961;52.156;20.942;2023-07-31T07:46:47;5.13;;;2.03;;
68923;SDS011;55961;52.156;20.942;2023-07-31T07:49:13;4.72;;;2.45;;
68923;SDS011;55961;52.156;20.942;2023-07-31T07:51:39;5.40;;;2.50;;
68923;SDS011;55961;52.156;20.942;2023-07-31T07:54:05;5.55;;;2.80;;
68923;SDS011;55961;52.156;20.942;2023-07-31T07:56:32;6.95;;;2.60;;
68923;SDS011;55961;52.156;20.942;2023-07-31T07:58:58;6.07;;;2.60;;
68923;SDS011;55961;52.156;20.942;2023-07-31T08:01:24;5.87;;;2.67;;
68923;SDS011;55961;52.156;20.942;2023-07-31T08:03:50;6.78;;;2.95;;
68923;SDS011;55961;52.156;20.942;2023-07-31T08:06:16;7.13;;;2.55;;
68923;SDS011;55961;52.156;20.942;2023-07-31T08:08:42;7.28;;;2.75;;
68923;SDS011;55961;52.156;20.942;2023-07-31T08:11:08;6.70;;;2.47;;
68923;SDS011;55961;52.156;20.942;2023-07-31T08:13:34;6.47;;;2.58;;
68923;SDS011;55961;52.156;20.942;2023-07-31T08:16:02;6.63;;;2.35;;
68923;SDS011;55961;52.156;20.942;2023-07-31T08:18:30;6.15;;;2.05;;
68923;SDS011;55961;52.156;20.942;2023-07-31T08:20:57;4.53;;;2.33;;
68923;SDS011;55961;52.156;20.942;2023-07-31T08:23:22;4.07;;;2.17;;
68923;SDS011;55961;52.156;20.942;2023-07-31T08:25:49;5.53;;;2.13;;
68923;SDS011;55961;52.156;20.942;2023-07-31T08:28:15;4.43;;;2.00;;
68923;SDS011;55961;52.156;20.942;2023-07-31T08:30:42;6.18;;;2.67;;
68923;SDS011;55961;52.156;20.942;2023-07-31T08:33:08;6.82;;;3.30;;
68923;SDS011;55961;52.156;20.942;2023-07-31T08:35:34;5.60;;;2.30;;
68923;SDS011;55961;52.156;20.942;2023-07-31T08:37:59;6.57;;;2.50;;
68923;SDS011;55961;52.156;20.942;2023-07-31T08:40:25;8.05;;;2.55;;
68923;SDS011;55961;52.156;20.942;2023-07-31T08:42:53;5.13;;;2.00;;
68923;SDS011;55961;52.156;20.942;2023-07-31T08:45:22;5.65;;;2.67;;
68923;SDS011;55961;52.156;20.942;2023-07-31T08:47:49;7.30;;;2.35;;
68923;SDS011;55961;52.156;20.942;2023-07-31T08:50:17;5.13;;;2.50;;
68923;SDS011;55961;52.156;20.942;2023-07-31T08:52:45;5.32;;;2.40;;
68923;SDS011;55961;52.156;20.942;2023-07-31T08:55:12;5.00;;;2.60;;
68923;SDS011;55961;52.156;20.942;2023-07-31T08:57:38;5.57;;;2.50;;
68923;SDS011;55961;52.156;20.942;2023-07-31T09:00:05;4.60;;;2.47;;
68923;SDS011;55961;52.156;20.942;2023-07-31T09:02:46;7.00;;;2.47;;
68923;SDS011;55961;52.156;20.942;2023-07-31T09:05:18;5.72;;;2.55;;
68923;SDS011;55961;52.156;20.942;2023-07-31T09:07:45;6.47;;;2.25;;
68923;SDS011;55961;52.156;20.942;2023-07-31T09:10:13;5.55;;;2.38;;
68923;SDS011;55961;52.156;20.942;2023-07-31T09:12:39;4.63;;;2.27;;
68923;SDS011;55961;52.156;20.942;2023-07-31T09:15:05;6.30;;;2.20;;
68923;SDS011;55961;52.156;20.942;2023-07-31T09:17:33;5.50;;;2.28;;
68923;SDS011;55961;52.156;20.942;2023-07-31T09:20:13;4.35;;;1.92;;
68923;SDS011;55961;52.156;20.942;2023-07-31T09:22:40;4.83;;;2.00;;
68923;SDS011;55961;52.156;20.942;2023-07-31T09:30:14;5.80;;;1.85;;
68923;SDS011;55961;52.156;20.942;2023-07-31T09:32:40;5.35;;;2.28;;
68923;SDS011;55961;52.156;20.942;2023-07-31T09:35:28;4.30;;;2.37;;
68923;SDS011;55961;52.156;20.942;2023-07-31T09:37:55;5.28;;;1.80;;
68923;SDS011;55961;52.156;20.942;2023-07-31T09:40:30;4.45;;;1.95;;
68923;SDS011;55961;52.156;20.942;2023-07-31T09:42:58;4.47;;;2.20;;
68923;SDS011;55961;52.156;20.942;2023-07-31T09:45:29;4.78;;;2.15;;
68923;SDS011;55961;52.156;20.942;2023-07-31T09:47:56;5.13;;;2.23;;
68923;SDS011;55961;52.156;20.942;2023-07-31T09:50:23;5.53;;;2.00;;
68923;SDS011;55961;52.156;20.942;2023-07-31T09:52:50;5.72;;;2.03;;
68923;SDS011;55961;52.156;20.942;2023-07-31T09:55:17;4.40;;;2.03;;
68923;SDS011;55961;52.156;20.942;2023-07-31T09:57:45;4.20;;;2.13;;
68923;SDS011;55961;52.156;20.942;2023-07-31T10:00:13;6.10;;;2.23;;
68923;SDS011;55961;52.156;20.942;2023-07-31T10:02:41;3.80;;;1.83;;
68923;SDS011;55961;52.156;20.942;2023-07-31T10:05:08;5.35;;;2.03;;
68923;SDS011;55961;52.156;20.942;2023-07-31T10:07:37;6.07;;;1.90;;
68923;SDS011;55961;52.156;20.942;2023-07-31T10:10:07;5.28;;;2.40;;
68923;SDS011;55961;52.156;20.942;2023-07-31T10:12:34;6.57;;;2.40;;
68923;SDS011;55961;52.156;20.942;2023-07-31T10:15:02;3.55;;;1.85;;
68923;SDS011;55961;52.156;20.942;2023-07-31T10:17:29;7.03;;;2.40;;
68923;SDS011;55961;52.156;20.942;2023-07-31T10:19:59;3.78;;;1.90;;
68923;SDS011;55961;52.156;20.942;2023-07-31T10:22:30;4.20;;;1.75;;
68923;SDS011;55961;52.156;20.942;2023-07-31T10:24:57;6.60;;;1.90;;
68923;SDS011;55961;52.156;20.942;2023-07-31T10:27:24;5.22;;;1.73;;
68923;SDS011;55961;52.156;20.942;2023-07-31T10:29:51;4.55;;;2.30;;
68923;SDS011;55961;52.156;20.942;2023-07-31T10:32:19;3.80;;;1.38;;
68923;SDS011;55961;52.156;20.942;2023-07-31T10:34:46;5.05;;;1.77;;
68923;SDS011;55961;52.156;20.942;2023-07-31T10:37:20;4.17;;;1.73;;
68923;SDS011;55961;52.156;20.942;2023-07-31T10:39:55;3.78;;;1.33;;
68923;SDS011;55961;52.156;20.942;2023-07-31T10:42:20;3.97;;;1.83;;
68923;SDS011;55961;52.156;20.942;2023-07-31T10:45:12;3.70;;;1.63;;
68923;SDS011;55961;52.156;20.942;2023-07-31T10:47:42;3.58;;;1.58;;
68923;SDS011;55961;52.156;20.942;2023-07-31T10:50:12;3.53;;;1.77;;
68923;SDS011;55961;52.156;20.942;2023-07-31T10:52:43;3.90;;;1.80;;
68923;SDS011;55961;52.156;20.942;2023-07-31T10:55:15;5.72;;;2.00;;
68923;SDS011;55961;52.156;20.942;2023-07-31T10:57:48;5.43;;;1.98;;
68923;SDS011;55961;52.156;20.942;2023-07-31T11:00:22;4.80;;;1.20;;
68923;SDS011;55961;52.156;20.942;2023-07-31T11:03:04;3.43;;;1.60;;
68923;SDS011;55961;52.156;20.942;2023-07-31T11:08:24;3.85;;;1.85;;
68923;SDS011;55961;52.156;20.942;2023-07-31T11:13:27;4.05;;;1.33;;
68923;SDS011;55961;52.156;20.942;2023-07-31T11:15:57;5.53;;;1.67;;
68923;SDS011;55961;52.156;20.942;2023-07-31T11:18:23;5.55;;;1.80;;
68923;SDS011;55961;52.156;20.942;2023-07-31T11:20:49;4.15;;;1.65;;
68923;SDS011;55961;52.156;20.942;2023-07-31T11:23:16;4.22;;;1.92;;
68923;SDS011;55961;52.156;20.942;2023-07-31T11:25:44;4.27;;;1.47;;
68923;SDS011;55961;52.156;20.942;2023-07-31T11:28:11;3.78;;;1.60;;
68923;SDS011;55961;52.156;20.942;2023-07-31T11:30:39;4.20;;;1.92;;
68923;SDS011;55961;52.156;20.942;2023-07-31T11:33:06;5.28;;;1.77;;
68923;SDS011;55961;52.156;20.942;2023-07-31T11:35:33;4.00;;;1.80;;
68923;SDS011;55961;52.156;20.942;2023-07-31T11:38:01;4.10;;;1.70;;
68923;SDS011;55961;52.156;20.942;2023-07-31T11:40:28;4.57;;;1.63;;
68923;SDS011;55961;52.156;20.942;2023-07-31T11:42:58;4.78;;;1.88;;
68923;SDS011;55961;52.156;20.942;2023-07-31T11:45:29;6.50;;;1.48;;
68923;SDS011;55961;52.156;20.942;2023-07-31T11:47:55;3.13;;;1.58;;
68923;SDS011;55961;52.156;20.942;2023-07-31T11:50:22;5.53;;;2.13;;
68923;SDS011;55961;52.156;20.942;2023-07-31T11:52:53;3.33;;;1.65;;
68923;SDS011;55961;52.156;20.942;2023-07-31T11:55:24;3.47;;;1.83;;
68923;SDS011;55961;52.156;20.942;2023-07-31T11:57:51;4.88;;;2.05;;
68923;SDS011;55961;52.156;20.942;2023-07-31T12:00:19;6.43;;;1.90;;
68923;SDS011;55961;52.156;20.942;2023-07-31T12:02:46;3.90;;;1.97;;
68923;SDS011;55961;52.156;20.942;2023-07-31T12:05:13;4.63;;;1.90;;
68923;SDS011;55961;52.156;20.942;2023-07-31T12:07:43;5.10;;;1.92;;
68923;SDS011;55961;52.156;20.942;2023-07-31T12:12:58;5.25;;;1.98;;
68923;SDS011;55961;52.156;20.942;2023-07-31T12:15:44;3.87;;;1.93;;
68923;SDS011;55961;52.156;20.942;2023-07-31T12:20:54;6.43;;;2.22;;
68923;SDS011;55961;52.156;20.942;2023-07-31T12:23:22;6.88;;;1.85;;
68923;SDS011;55961;52.156;20.942;2023-07-31T12:26:00;5.03;;;1.80;;
68923;SDS011;55961;52.156;20.942;2023-07-31T12:28:30;4.17;;;1.60;;
68923;SDS011;55961;52.156;20.942;2023-07-31T12:31:00;3.38;;;1.65;;
68923;SDS011;55961;52.156;20.942;2023-07-31T12:33:36;4.45;;;1.90;;
68923;SDS011;55961;52.156;20.942;2023-07-31T12:36:08;5.13;;;1.75;;
68923;SDS011;55961;52.156;20.942;2023-07-31T12:38:38;4.97;;;1.70;;
68923;SDS011;55961;52.156;20.942;2023-07-31T12:41:04;5.67;;;1.60;;
68923;SDS011;55961;52.156;20.942;2023-07-31T12:43:32;5.25;;;1.65;;
68923;SDS011;55961;52.156;20.942;2023-07-31T12:46:02;4.93;;;1.90;;
68923;SDS011;55961;52.156;20.942;2023-07-31T12:48:28;4.38;;;1.58;;
68923;SDS011;55961;52.156;20.942;2023-07-31T12:50:54;6.97;;;2.35;;
68923;SDS011;55961;52.156;20.942;2023-07-31T12:53:20;5.03;;;1.43;;
68923;SDS011;55961;52.156;20.942;2023-07-31T12:55:46;3.47;;;1.30;;
68923;SDS011;55961;52.156;20.942;2023-07-31T12:58:12;4.63;;;1.95;;
68923;SDS011;55961;52.156;20.942;2023-07-31T13:00:38;5.38;;;2.10;;
68923;SDS011;55961;52.156;20.942;2023-07-31T13:03:04;5.27;;;1.90;;
68923;SDS011;55961;52.156;20.942;2023-07-31T13:05:30;4.30;;;1.95;;
68923;SDS011;55961;52.156;20.942;2023-07-31T13:07:56;4.28;;;1.75;;
68923;SDS011;55961;52.156;20.942;2023-07-31T13:10:23;6.60;;;1.95;;
68923;SDS011;55961;52.156;20.942;2023-07-31T13:12:49;4.27;;;1.97;;
68923;SDS011;55961;52.156;20.942;2023-07-31T13:15:15;4.07;;;1.83;;
68923;SDS011;55961;52.156;20.942;2023-07-31T13:17:41;5.03;;;2.35;;
68923;SDS011;55961;52.156;20.942;2023-07-31T13:20:07;12.35;;;6.22;;
68923;SDS011;55961;52.156;20.942;2023-07-31T13:22:34;8.75;;;5.63;;
68923;SDS011;55961;52.156;20.942;2023-07-31T13:25:00;23.03;;;14.13;;
68923;SDS011;55961;52.156;20.942;2023-07-31T13:27:26;17.38;;;11.30;;
68923;SDS011;55961;52.156;20.942;2023-07-31T13:29:52;9.15;;;4.97;;
68923;SDS011;55961;52.156;20.942;2023-07-31T13:32:18;15.57;;;8.98;;
68923;SDS011;55961;52.156;20.942;2023-07-31T13:34:46;18.87;;;10.60;;
68923;SDS011;55961;52.156;20.942;2023-07-31T13:37:12;16.50;;;9.55;;
68923;SDS011;55961;52.156;20.942;2023-07-31T13:39:39;17.73;;;11.05;;
68923;SDS011;55961;52.156;20.942;2023-07-31T13:42:06;14.10;;;8.90;;
68923;SDS011;55961;52.156;20.942;2023-07-31T13:44:34;11.75;;;8.05;;
68923;SDS011;55961;52.156;20.942;2023-07-31T13:47:00;15.37;;;9.13;;
68923;SDS011;55961;52.156;20.942;2023-07-31T13:49:27;15.43;;;9.07;;
68923;SDS011;55961;52.156;20.942;2023-07-31T13:51:52;11.60;;;6.50;;
68923;SDS011;55961;52.156;20.942;2023-07-31T13:54:19;8.15;;;5.30;;
68923;SDS011;55961;52.156;20.942;2023-07-31T13:56:44;10.27;;;5.40;;
68923;SDS011;55961;52.156;20.942;2023-07-31T13:59:11;9.07;;;5.07;;
68923;SDS011;55961;52.156;20.942;2023-07-31T14:01:37;8.25;;;4.93;;
68923;SDS011;55961;52.156;20.942;2023-07-31T14:04:03;7.75;;;4.50;;
68923;SDS011;55961;52.156;20.942;2023-07-31T14:06:29;8.23;;;4.87;;
68923;SDS011;55961;52.156;20.942;2023-07-31T14:08:55;7.32;;;3.50;;
68923;SDS011;55961;52.156;20.942;2023-07-31T14:11:21;6.40;;;3.15;;
68923;SDS011;55961;52.156;20.942;2023-07-31T14:13:49;6.78;;;3.15;;
68923;SDS011;55961;52.156;20.942;2023-07-31T14:16:16;8.23;;;2.87;;
68923;SDS011;55961;52.156;20.942;2023-07-31T14:18:42;5.38;;;3.00;;
68923;SDS011;55961;52.156;20.942;2023-07-31T14:21:10;5.20;;;2.28;;
68923;SDS011;55961;52.156;20.942;2023-07-31T14:23:36;5.82;;;2.25;;
68923;SDS011;55961;52.156;20.942;2023-07-31T14:26:02;6.40;;;2.77;;
68923;SDS011;55961;52.156;20.942;2023-07-31T14:28:28;4.30;;;1.90;;
68923;SDS011;55961;52.156;20.942;2023-07-31T14:30:55;6.60;;;2.13;;
68923;SDS011;55961;52.156;20.942;2023-07-31T14:33:21;5.18;;;2.28;;
68923;SDS011;55961;52.156;20.942;2023-07-31T14:35:46;4.73;;;2.10;;
68923;SDS011;55961;52.156;20.942;2023-07-31T14:38:13;4.85;;;2.00;;
68923;SDS011;55961;52.156;20.942;2023-07-31T14:40:38;7.65;;;2.15;;
68923;SDS011;55961;52.156;20.942;2023-07-31T14:43:04;4.97;;;2.47;;
68923;SDS011;55961;52.156;20.942;2023-07-31T14:45:30;4.80;;;2.00;;
68923;SDS011;55961;52.156;20.942;2023-07-31T14:47:56;5.47;;;1.50;;
68923;SDS011;55961;52.156;20.942;2023-07-31T14:50:22;5.17;;;2.17;;
68923;SDS011;55961;52.156;20.942;2023-07-31T14:52:49;4.75;;;1.80;;
68923;SDS011;55961;52.156;20.942;2023-07-31T14:55:16;7.47;;;1.80;;
68923;SDS011;55961;52.156;20.942;2023-07-31T14:57:42;4.95;;;1.95;;